Terminal Aerodrome Forecast
Issued by NWS

Home | Current Version | Previous Version | Text Only | Print | Product List | Glossary On
Versions: 1 2 3 4 5 6 7 8 9 10 11 12 13 14 15 16 17 18 19 20 21 22
929
FTUS43 KAPX 240520
TAFAPN
TAF
KAPN 240520Z 2406/2506 32010KT P6SM -SHSN BKN015
     FM240900 33009KT P6SM BKN015
     FM241600 35006KT P6SM BKN150
     FM250200 00000KT P6SM BKN090=

USA.gov is the U.S. government's official web portal to all federal, state and local government web resources and services.